Time;durP1;ratioP1;P1;durP2;ratioP2;P2;SDS_P1;SDS_P2;PMS_P1;PMS_P2;Temp;Humidity;BMP_temperature;BMP_pressure;BME280_temperature;BME280_humidity;BME280_pressure;Samples;Min_cycle;Max_cycle;Signal;HPM_P1;HPM_P2
2021/04/01 00:01:46;;;;;;;41.55;22.98;;;15.90;65.60;;;;;;5064842;28;20021;-39
2021/04/01 00:04:12;;;;;;;41.70;23.10;;;15.90;65.70;;;;;;5063901;28;20055;-40
2021/04/01 00:06:37;;;;;;;41.28;23.85;;;15.90;65.90;;;;;;5064389;28;20535;-40
2021/04/01 00:09:04;;;;;;;42.13;23.85;;;15.90;66.00;;;;;;5064571;28;20032;-41
2021/04/01 00:11:30;;;;;;;37.50;22.75;;;15.90;66.00;;;;;;5064271;28;20029;-37
2021/04/01 00:14:01;;;;;;;40.85;23.42;;;15.90;66.10;;;;;;5064517;28;20021;-37
2021/04/01 00:16:27;;;;;;;42.72;23.63;;;15.90;66.20;;;;;;5064577;28;20029;-39
2021/04/01 00:18:56;;;;;;;40.42;23.63;;;15.80;66.10;;;;;;5063834;28;20036;-39
2021/04/01 00:21:21;;;;;;;39.97;23.90;;;15.80;66.20;;;;;;5064590;28;20008;-39
2021/04/01 00:23:47;;;;;;;39.58;23.02;;;15.90;66.20;;;;;;5063952;28;20130;-40
2021/04/01 00:26:15;;;;;;;40.05;23.25;;;15.90;66.20;;;;;;5064307;28;20067;-38
2021/04/01 00:28:41;;;;;;;43.70;25.80;;;15.90;66.30;;;;;;5063876;28;20107;-39
2021/04/01 00:31:06;;;;;;;42.05;23.48;;;15.90;66.30;;;;;;5064944;28;20551;-39
2021/04/01 00:33:32;;;;;;;38.60;22.23;;;15.90;66.50;;;;;;5062567;28;20033;-39
2021/04/01 00:35:58;;;;;;;40.58;23.00;;;15.90;66.50;;;;;;5063679;28;20464;-39
2021/04/01 00:38:23;;;;;;;45.45;25.35;;;15.90;66.50;;;;;;5063861;28;20175;-39
2021/04/01 00:40:49;;;;;;;42.47;23.65;;;15.80;66.40;;;;;;5064365;28;20115;-40
2021/04/01 00:43:15;;;;;;;40.10;23.42;;;15.80;66.60;;;;;;5064259;28;20100;-39
2021/04/01 00:45:40;;;;;;;41.35;22.73;;;15.80;66.60;;;;;;5063920;28;20020;-37
2021/04/01 00:48:06;;;;;;;42.28;24.52;;;15.80;66.80;;;;;;5064728;28;20618;-38
2021/04/01 00:50:32;;;;;;;42.63;23.92;;;15.80;67.00;;;;;;5064171;28;20690;-37
2021/04/01 00:52:58;;;;;;;42.08;23.90;;;15.80;67.00;;;;;;5063937;28;20723;-37
2021/04/01 00:55:24;;;;;;;42.80;24.63;;;15.70;67.10;;;;;;5062928;28;20046;-38
2021/04/01 00:57:52;;;;;;;41.03;23.38;;;15.70;67.20;;;;;;5064333;28;20399;-41
2021/04/01 01:00:25;;;;;;;39.72;22.95;;;15.70;67.40;;;;;;5063748;28;20115;-39
2021/04/01 01:02:51;;;;;;;41.63;23.80;;;15.70;67.50;;;;;;5062296;28;20020;-39
2021/04/01 01:05:18;;;;;;;43.25;24.33;;;15.70;67.40;;;;;;5063624;28;20045;-38
2021/04/01 01:07:44;;;;;;;44.20;23.20;;;15.70;67.40;;;;;;5064232;28;20450;-38
2021/04/01 01:10:16;;;;;;;42.53;22.77;;;15.60;67.30;;;;;;5063621;28;20057;-39
2021/04/01 01:12:45;;;;;;;43.80;24.67;;;15.60;67.40;;;;;;5064053;28;20031;-40
2021/04/01 01:15:13;;;;;;;42.75;23.25;;;15.60;67.40;;;;;;5063698;28;20017;-40
2021/04/01 01:17:39;;;;;;;43.47;25.00;;;15.60;67.50;;;;;;5067570;28;20027;-39
2021/04/01 01:20:09;;;;;;;39.55;23.00;;;15.50;67.50;;;;;;5067363;28;20086;-38
2021/04/01 01:22:37;;;;;;;38.92;22.90;;;15.50;67.80;;;;;;5067945;28;20411;-38
2021/04/01 01:25:11;;;;;;;38.47;23.25;;;15.50;68.00;;;;;;5067398;28;20024;-39
2021/04/01 01:27:38;;;;;;;40.08;23.98;;;15.50;68.20;;;;;;5067493;28;20020;-39
2021/04/01 01:30:08;;;;;;;38.30;22.17;;;15.50;68.20;;;;;;5067268;28;20021;-38
2021/04/01 01:32:37;;;;;;;40.92;24.45;;;15.50;68.40;;;;;;5066658;28;20060;-38
2021/04/01 01:35:13;;;;;;;40.20;23.50;;;15.50;68.50;;;;;;5062914;28;20021;-34
2021/04/01 01:37:46;;;;;;;43.75;25.58;;;15.40;68.50;;;;;;5067479;28;20032;-37
2021/04/01 01:40:12;;;;;;;54.15;29.77;;;15.40;68.90;;;;;;5067135;28;20021;-38
2021/04/01 01:42:37;;;;;;;51.40;27.13;;;15.30;68.80;;;;;;5067031;28;20063;-39
2021/04/01 01:45:03;;;;;;;46.47;25.83;;;15.30;68.70;;;;;;5067288;28;20025;-38
2021/04/01 01:47:29;;;;;;;48.88;26.15;;;15.30;68.70;;;;;;5067026;28;20177;-38
2021/04/01 01:50:02;;;;;;;47.55;25.80;;;15.30;68.60;;;;;;5067227;28;20166;-38
2021/04/01 01:52:27;;;;;;;51.20;27.05;;;15.30;68.30;;;;;;5063818;28;20265;-39
2021/04/01 01:54:53;;;;;;;45.08;25.45;;;15.40;68.10;;;;;;5067053;28;20535;-38
2021/04/01 01:57:18;;;;;;;41.22;23.65;;;15.40;68.00;;;;;;5066582;28;20051;-37
2021/04/01 01:59:45;;;;;;;43.38;25.70;;;15.40;68.10;;;;;;5067266;28;20151;-39
2021/04/01 02:02:10;;;;;;;42.60;25.83;;;15.40;68.50;;;;;;5066869;28;20140;-39
2021/04/01 02:04:39;;;;;;;43.53;25.33;;;15.40;68.70;;;;;;5066242;28;20454;-38
2021/04/01 02:07:04;;;;;;;48.75;29.15;;;15.30;68.20;;;;;;5066514;28;20044;-38
2021/04/01 02:09:30;;;;;;;48.83;28.92;;;15.20;68.60;;;;;;5066749;28;20047;-36
2021/04/01 02:11:56;;;;;;;45.40;27.73;;;15.10;69.90;;;;;;5065535;28;20082;-38
2021/04/01 02:14:21;;;;;;;41.33;25.70;;;15.00;69.90;;;;;;5066907;28;20095;-39
2021/04/01 02:16:47;;;;;;;42.92;25.40;;;14.90;70.40;;;;;;5065806;28;20131;-36
2021/04/01 02:19:12;;;;;;;41.92;26.00;;;14.80;70.70;;;;;;5065503;28;20044;-37
2021/04/01 02:21:38;;;;;;;40.80;24.92;;;14.80;71.30;;;;;;5066611;28;20116;-38
2021/04/01 02:24:04;;;;;;;39.67;24.15;;;14.70;71.80;;;;;;5066168;28;20029;-39
2021/04/01 02:26:30;;;;;;;41.88;24.45;;;14.70;72.20;;;;;;5065912;28;20094;-46
2021/04/01 02:28:55;;;;;;;38.58;23.80;;;14.70;72.90;;;;;;5065690;28;20444;-39
2021/04/01 02:31:21;;;;;;;41.33;26.65;;;14.60;73.10;;;;;;5065869;28;20467;-39
2021/04/01 02:33:48;;;;;;;39.67;25.98;;;14.50;73.20;;;;;;5065807;28;20066;-37
2021/04/01 02:36:14;;;;;;;41.75;24.70;;;14.50;73.30;;;;;;5065915;28;20032;-38
2021/04/01 02:38:40;;;;;;;43.35;25.58;;;14.50;73.30;;;;;;5065369;28;20111;-38
2021/04/01 02:41:06;;;;;;;43.05;25.40;;;14.50;73.40;;;;;;5066185;28;20047;-39
2021/04/01 02:43:34;;;;;;;45.67;26.98;;;14.60;73.50;;;;;;5066576;28;20035;-40
2021/04/01 02:46:03;;;;;;;65.03;33.40;;;14.60;73.20;;;;;;5046006;28;20086;-41
2021/04/01 02:48:29;;;;;;;65.10;34.47;;;14.60;70.80;;;;;;5060671;28;20438;-40
2021/04/01 02:50:55;;;;;;;75.55;37.75;;;14.70;69.40;;;;;;5066100;28;20033;-40
2021/04/01 02:53:21;;;;;;;74.03;36.78;;;14.80;68.70;;;;;;5065848;28;20024;-38
2021/04/01 02:55:46;;;;;;;70.85;35.55;;;14.90;67.90;;;;;;5065467;28;20042;-40
2021/04/01 02:58:12;;;;;;;70.50;35.40;;;15.00;67.80;;;;;;5066157;28;20024;-42
2021/04/01 03:00:38;;;;;;;66.82;35.25;;;15.10;67.50;;;;;;5065756;28;20077;-39
2021/04/01 03:05:36;;;;;;;71.45;34.90;;;15.20;67.50;;;;;;5065568;28;20574;-39
2021/04/01 03:08:01;;;;;;;62.35;32.70;;;15.20;67.40;;;;;;5065517;28;20024;-38
2021/04/01 03:10:27;;;;;;;62.38;33.25;;;15.20;67.50;;;;;;5065376;28;20368;-36
2021/04/01 03:12:52;;;;;;;63.50;34.28;;;15.20;67.50;;;;;;5065987;28;20080;-39
2021/04/01 03:15:19;;;;;;;59.22;31.92;;;15.10;67.60;;;;;;5065906;28;20029;-36
2021/04/01 03:17:51;;;;;;;59.33;31.00;;;15.00;67.80;;;;;;5065641;28;20039;-38
2021/04/01 03:20:17;;;;;;;57.03;31.20;;;14.90;68.00;;;;;;5065499;28;20032;-38
2021/04/01 03:22:42;;;;;;;59.00;31.85;;;14.80;68.10;;;;;;5065146;28;20241;-39
2021/04/01 03:25:10;;;;;;;63.47;33.08;;;14.70;68.30;;;;;;5065376;28;20695;-39
2021/04/01 03:27:36;;;;;;;64.47;33.67;;;14.60;68.70;;;;;;5065703;28;20044;-39
2021/04/01 03:30:12;;;;;;;61.55;33.28;;;14.40;69.00;;;;;;5065147;28;20055;-39
2021/04/01 03:32:43;;;;;;;66.50;33.88;;;14.40;69.30;;;;;;5045658;28;20033;-39
2021/04/01 03:35:11;;;;;;;58.85;30.67;;;14.30;69.50;;;;;;5060336;28;20145;-41
2021/04/01 03:37:38;;;;;;;55.40;29.80;;;14.20;69.50;;;;;;5064977;28;20079;-39
2021/04/01 03:40:05;;;;;;;51.42;27.08;;;14.20;69.30;;;;;;5065370;28;20218;-38
2021/04/01 03:42:31;;;;;;;52.22;27.60;;;14.30;69.40;;;;;;5064482;28;20025;-39
2021/04/01 03:44:57;;;;;;;49.33;26.10;;;14.20;69.40;;;;;;5064968;28;20023;-39
2021/04/01 03:47:23;;;;;;;49.30;25.95;;;14.10;69.60;;;;;;5065830;28;20107;-38
2021/04/01 03:49:49;;;;;;;54.17;27.35;;;14.10;69.90;;;;;;5064435;28;20062;-36
2021/04/01 03:52:14;;;;;;;48.92;26.27;;;14.00;70.10;;;;;;5065355;28;20060;-41
2021/04/01 03:54:42;;;;;;;50.47;26.30;;;14.00;70.50;;;;;;5065166;28;20071;-38
2021/04/01 03:57:08;;;;;;;48.38;26.88;;;13.90;70.70;;;;;;5065070;28;20439;-39
2021/04/01 03:59:43;;;;;;;49.35;26.33;;;13.80;70.90;;;;;;5065060;28;20028;-39
2021/04/01 04:02:18;;;;;;;45.40;25.40;;;13.70;71.20;;;;;;5064756;28;20343;-40
2021/04/01 04:05:04;;;;;;;42.33;24.95;;;13.70;71.50;;;;;;5064789;28;20904;-36
2021/04/01 04:10:16;;;;;;;47.53;26.02;;;13.50;72.20;;;;;;5064488;28;20036;-36
2021/04/01 04:12:56;;;;;;;44.55;23.98;;;13.50;72.50;;;;;;5055303;28;20017;-39
2021/04/01 04:15:22;;;;;;;41.63;23.55;;;13.40;72.30;;;;;;5065083;28;20043;-38
2021/04/01 04:17:49;;;;;;;43.42;24.83;;;13.40;72.30;;;;;;5064661;28;20113;-39
2021/04/01 04:20:15;;;;;;;43.67;23.70;;;13.40;72.40;;;;;;5065128;28;20115;-45
2021/04/01 04:22:41;;;;;;;39.58;22.80;;;13.30;72.60;;;;;;5065130;28;20470;-37
2021/04/01 04:25:09;;;;;;;45.08;23.95;;;13.30;72.90;;;;;;5064797;28;20024;-39
2021/04/01 04:30:05;;;;;;;42.72;24.20;;;13.10;73.50;;;;;;5064304;28;20029;-39
2021/04/01 04:32:34;;;;;;;42.97;24.65;;;13.10;73.80;;;;;;5064409;28;20035;-39
2021/04/01 04:35:01;;;;;;;40.22;23.65;;;13.00;74.10;;;;;;5064223;28;20116;-39
2021/04/01 04:37:27;;;;;;;44.35;24.45;;;13.00;74.30;;;;;;5064255;28;20017;-39
2021/04/01 04:39:52;;;;;;;46.75;24.25;;;12.90;74.50;;;;;;5064222;28;20353;-39
2021/04/01 04:42:18;;;;;;;42.25;22.33;;;12.90;74.60;;;;;;5064408;28;20021;-38
2021/04/01 04:44:44;;;;;;;50.00;25.20;;;12.80;74.70;;;;;;5064093;28;20043;-39
2021/04/01 04:47:10;;;;;;;54.65;27.67;;;12.80;74.90;;;;;;5064285;28;20036;-38
2021/04/01 04:49:35;;;;;;;52.65;26.77;;;12.90;74.90;;;;;;5064476;28;20043;-42
2021/04/01 04:52:01;;;;;;;47.53;24.33;;;13.00;74.70;;;;;;5067191;28;20016;-41
2021/04/01 04:54:31;;;;;;;53.67;25.25;;;13.00;74.30;;;;;;5068588;28;20032;-39
2021/04/01 04:57:00;;;;;;;52.40;25.70;;;13.10;74.40;;;;;;5068857;28;20023;-43
2021/04/01 04:59:33;;;;;;;46.70;24.30;;;13.10;74.20;;;;;;5068044;28;20036;-44
2021/04/01 05:07:08;;;;;;;49.08;26.05;;;13.00;74.30;;;;;;5067753;28;20044;-39
2021/04/01 05:09:34;;;;;;;48.47;25.80;;;13.00;74.50;;;;;;5067257;28;20123;-38
2021/04/01 05:11:59;;;;;;;48.30;25.88;;;12.90;74.70;;;;;;5068818;28;20043;-41
2021/04/01 05:14:25;;;;;;;47.08;25.77;;;12.80;74.90;;;;;;5067739;28;20383;-37
2021/04/01 05:16:51;;;;;;;46.95;25.27;;;12.80;75.20;;;;;;5068287;28;20023;-39
2021/04/01 05:19:17;;;;;;;46.60;24.70;;;12.70;75.60;;;;;;5068749;28;20396;-39
2021/04/01 05:24:09;;;;;;;46.88;24.70;;;12.60;75.90;;;;;;5067457;28;20124;-38
2021/04/01 05:29:04;;;;;;;45.00;25.40;;;12.50;76.40;;;;;;5067307;28;20032;-39
2021/04/01 05:31:34;;;;;;;42.72;23.48;;;12.40;76.60;;;;;;5067799;28;20377;-39
2021/04/01 05:33:59;;;;;;;43.42;23.70;;;12.40;76.90;;;;;;5066710;28;20032;-40
2021/04/01 05:36:28;;;;;;;50.33;24.58;;;12.40;77.10;;;;;;5066556;28;20418;-37
2021/04/01 05:38:56;;;;;;;47.95;25.42;;;12.40;77.30;;;;;;5065677;28;20059;-38
2021/04/01 05:41:24;;;;;;;41.00;22.08;;;12.30;77.40;;;;;;5067485;28;20028;-41
2021/04/01 05:44:00;;;;;;;40.70;23.45;;;12.30;77.40;;;;;;5068324;28;20032;-38
2021/04/01 05:46:36;;;;;;;44.78;23.55;;;12.40;77.50;;;;;;5067721;28;20098;-43
2021/04/01 06:00:30;;;;;;;48.75;24.75;;;12.50;78.60;;;;;;5062889;28;20124;-39
2021/04/01 06:03:28;;;;;;;49.55;26.20;;;12.50;77.90;;;;;;5044129;28;20063;-37
2021/04/01 06:06:02;;;;;;;56.15;27.98;;;12.60;78.10;;;;;;5065381;28;20389;-35
2021/04/01 06:08:30;;;;;;;51.97;26.67;;;12.60;78.40;;;;;;5065884;28;20418;-38
2021/04/01 06:10:57;;;;;;;44.42;22.65;;;12.70;77.90;;;;;;5063822;28;20353;-40
2021/04/01 06:13:27;;;;;;;44.90;23.30;;;12.70;77.60;;;;;;5065440;28;20516;-36
2021/04/01 06:15:52;;;;;;;50.85;25.02;;;12.70;77.50;;;;;;5065463;28;20040;-39
2021/04/01 06:18:21;;;;;;;60.92;30.80;;;12.80;77.80;;;;;;5065397;28;20036;-41
2021/04/01 06:20:49;;;;;;;66.90;32.25;;;12.80;78.20;;;;;;5065900;28;20055;-39
2021/04/01 06:23:31;;;;;;;67.68;34.75;;;12.80;78.60;;;;;;5046387;28;20021;-38
2021/04/01 06:25:58;;;;;;;62.25;31.75;;;12.80;79.00;;;;;;5062684;28;20043;-37
2021/04/01 06:28:46;;;;;;;76.32;36.15;;;12.80;79.10;;;;;;5046293;28;20033;-38
2021/04/01 06:31:30;;;;;;;71.63;35.53;;;12.80;79.60;;;;;;5062902;28;20020;-39
2021/04/01 06:33:59;;;;;;;71.32;35.00;;;12.80;79.60;;;;;;5059215;28;20020;-39
2021/04/01 06:36:27;;;;;;;72.25;36.58;;;12.80;79.90;;;;;;5066148;28;20499;-39
2021/04/01 06:38:53;;;;;;;77.50;41.42;;;12.80;80.10;;;;;;5064951;28;20028;-40
2021/04/01 06:41:28;;;;;;;77.15;38.47;;;12.80;80.60;;;;;;5065901;28;20040;-37
2021/04/01 06:44:22;;;;;;;81.53;41.75;;;12.70;80.60;;;;;;5066114;28;20133;-38
2021/04/01 06:46:49;;;;;;;79.30;40.42;;;12.70;81.00;;;;;;5065515;28;20043;-38
2021/04/01 06:52:09;;;;;;;74.70;36.33;;;12.70;81.40;;;;;;5064304;28;20773;-38
2021/04/01 06:57:43;;;;;;;80.57;42.22;;;12.60;81.30;;;;;;5065331;28;20041;-39
2021/04/01 07:02:55;;;;;;;86.82;43.45;;;12.60;82.00;;;;;;5063169;28;20306;-40
2021/04/01 07:05:36;;;;;;;78.30;39.85;;;12.70;82.50;;;;;;5065329;28;20354;-39
2021/04/01 07:08:06;;;;;;;76.90;38.03;;;12.60;82.10;;;;;;5062903;28;20123;-40
2021/04/01 07:13:20;;;;;;;76.10;39.60;;;12.70;82.00;;;;;;5064857;28;20308;-39
2021/04/01 07:15:49;;;;;;;82.82;41.03;;;12.80;82.30;;;;;;5065281;28;20316;-36
2021/04/01 07:35:21;;;;;;;116.10;55.35;;;12.90;83.00;;;;;;5054779;28;20032;-40
2021/04/01 07:48:43;;;;;;;124.13;62.05;;;13.10;83.60;;;;;;5063983;28;20102;-39
2021/04/01 07:54:12;;;;;;;115.93;59.00;;;13.10;83.70;;;;;;5064858;28;20044;-37
2021/04/01 07:56:49;;;;;;;108.78;56.30;;;13.20;83.60;;;;;;5063975;28;20028;-40
2021/04/01 08:04:42;;;;;;;119.18;61.88;;;13.30;83.60;;;;;;5063993;28;20029;-38
2021/04/01 08:07:13;;;;;;;107.28;56.30;;;13.40;84.10;;;;;;5064311;28;20478;-39
2021/04/01 08:09:43;;;;;;;106.10;55.95;;;13.40;83.20;;;;;;5063236;28;20129;-42
2021/04/01 08:12:33;;;;;;;99.97;52.92;;;13.40;83.10;;;;;;5063827;28;20043;-39
2021/04/01 08:15:11;;;;;;;112.25;58.05;;;13.50;83.00;;;;;;5061476;28;20133;-40
2021/04/01 08:17:46;;;;;;;114.40;59.45;;;13.60;82.90;;;;;;5063736;28;20056;-38
2021/04/01 08:20:24;;;;;;;109.55;56.65;;;13.70;82.80;;;;;;5064374;28;20082;-40
2021/04/01 08:23:05;;;;;;;107.22;58.47;;;13.70;82.50;;;;;;5063286;28;20020;-44
2021/04/01 08:25:38;;;;;;;112.63;60.13;;;13.80;82.50;;;;;;5063101;28;20155;-39
2021/04/01 08:35:56;;;;;;;113.15;58.30;;;14.00;81.80;;;;;;5063541;28;20037;-40
2021/04/01 08:38:22;;;;;;;96.90;52.33;;;14.10;81.70;;;;;;5064142;28;20021;-40
2021/04/01 08:40:49;;;;;;;87.18;47.13;;;14.20;81.60;;;;;;5063427;28;20036;-43
2021/04/01 08:43:39;;;;;;;102.57;54.30;;;14.30;81.40;;;;;;5064114;28;20027;-38
2021/04/01 08:46:10;;;;;;;103.38;55.72;;;14.30;81.00;;;;;;5063329;28;20410;-38
2021/04/01 08:48:55;;;;;;;101.60;54.97;;;14.50;79.50;;;;;;5063915;28;20020;-37
2021/04/01 08:51:42;;;;;;;96.78;54.88;;;14.50;77.50;;;;;;5062942;28;20017;-39
2021/04/01 08:54:19;;;;;;;95.80;53.08;;;14.60;76.80;;;;;;5063735;28;20090;-39
2021/04/01 08:56:59;;;;;;;109.60;60.75;;;14.70;76.80;;;;;;5061089;28;20115;-39
2021/04/01 08:59:56;;;;;;;99.82;55.92;;;14.70;75.80;;;;;;5063082;28;20102;-40
2021/04/01 09:02:23;;;;;;;100.90;55.97;;;14.70;75.40;;;;;;5035703;28;20047;-39
2021/04/01 09:04:52;;;;;;;102.28;56.97;;;14.80;75.60;;;;;;5063231;28;20016;-39
2021/04/01 09:07:26;;;;;;;107.38;61.25;;;14.80;75.40;;;;;;5063162;28;20123;-40
2021/04/01 09:09:53;;;;;;;103.75;58.70;;;14.90;75.00;;;;;;5063598;28;20415;-38
2021/04/01 09:14:58;;;;;;;102.75;56.42;;;15.00;74.90;;;;;;5063146;28;20032;-39
2021/04/01 09:17:34;;;;;;;92.60;51.13;;;15.10;74.00;;;;;;5063925;28;20195;-42
2021/04/01 09:20:14;;;;;;;95.18;54.20;;;15.20;74.30;;;;;;5063089;28;20485;-36
2021/04/01 09:22:49;;;;;;;94.15;53.10;;;15.20;73.90;;;;;;5060872;28;20036;-37
2021/04/01 09:25:15;;;;;;;158.27;93.93;;;15.30;73.80;;;;;;5063992;28;20107;-37
2021/04/01 09:27:48;;;;;;;168.75;91.93;;;15.30;73.50;;;;;;5063305;28;20040;-39
2021/04/01 09:30:15;;;;;;;133.50;74.22;;;15.40;72.90;;;;;;5063830;28;20550;-36
2021/04/01 09:32:42;;;;;;;105.63;59.40;;;15.40;73.00;;;;;;5063534;28;20032;-38
2021/04/01 09:35:09;;;;;;;95.35;55.83;;;15.40;72.40;;;;;;5063244;28;20020;-39
2021/04/01 09:37:35;;;;;;;94.43;52.97;;;15.50;72.20;;;;;;5065286;28;20517;-39
2021/04/01 09:40:12;;;;;;;96.38;55.80;;;15.50;72.10;;;;;;5067168;28;20515;-37
2021/04/01 09:42:42;;;;;;;97.38;54.70;;;15.60;71.40;;;;;;5066872;28;20060;-40
2021/04/01 09:45:12;;;;;;;89.47;52.47;;;15.60;71.10;;;;;;5067242;28;20090;-39
2021/04/01 09:47:53;;;;;;;97.07;56.50;;;15.60;71.20;;;;;;5066062;28;20020;-39
2021/04/01 09:50:19;;;;;;;91.85;54.88;;;15.60;70.80;;;;;;5047451;28;20063;-41
2021/04/01 09:52:57;;;;;;;87.95;52.15;;;15.60;70.80;;;;;;5062472;28;20032;-37
2021/04/01 09:55:23;;;;;;;88.88;52.08;;;15.60;71.30;;;;;;5046633;28;20104;-45
2021/04/01 09:57:58;;;;;;;85.97;50.13;;;15.70;71.40;;;;;;5061558;28;20021;-41
2021/04/01 10:03:04;;;;;;;93.20;53.95;;;15.60;71.50;;;;;;5065785;28;20102;-39
2021/04/01 10:05:42;;;;;;;89.97;51.65;;;15.70;71.50;;;;;;5059827;28;20064;-39
2021/04/01 10:08:11;;;;;;;79.07;46.80;;;15.60;71.60;;;;;;5066470;28;20064;-41
2021/04/01 10:10:39;;;;;;;83.45;45.90;;;15.60;71.80;;;;;;5065708;28;20074;-41
2021/04/01 10:13:21;;;;;;;72.03;42.42;;;15.50;71.40;;;;;;5062083;28;20086;-39
2021/04/01 10:15:47;;;;;;;68.85;41.10;;;15.50;71.60;;;;;;5064395;28;20039;-38
2021/04/01 10:18:18;;;;;;;67.63;41.28;;;15.50;71.90;;;;;;5066112;28;20040;-39
2021/04/01 10:20:50;;;;;;;64.10;37.47;;;15.50;72.00;;;;;;5064060;28;20028;-39
2021/04/01 10:23:17;;;;;;;58.40;35.30;;;15.50;72.10;;;;;;5065663;28;20571;-41
2021/04/01 10:25:50;;;;;;;52.65;30.95;;;15.40;71.70;;;;;;5060927;28;20113;-42
2021/04/01 10:28:27;;;;;;;46.10;26.98;;;15.40;71.20;;;;;;5066037;28;20728;-39
2021/04/01 10:30:55;;;;;;;45.80;26.40;;;15.40;71.40;;;;;;5065524;28;20032;-41
2021/04/01 10:33:28;;;;;;;42.45;25.33;;;15.40;71.80;;;;;;5065813;28;20032;-38
2021/04/01 10:35:56;;;;;;;44.40;23.10;;;15.40;71.90;;;;;;5065860;28;20044;-38
2021/04/01 10:38:27;;;;;;;38.28;20.60;;;15.40;71.20;;;;;;5064944;28;20012;-39
2021/04/01 10:41:03;;;;;;;32.70;18.27;;;15.40;70.60;;;;;;5063491;28;20403;-39
2021/04/01 10:43:33;;;;;;;32.33;17.38;;;15.40;70.40;;;;;;5062281;28;20408;-39
2021/04/01 10:46:00;;;;;;;25.98;14.65;;;15.40;70.30;;;;;;5064788;28;20028;-39
2021/04/01 10:48:42;;;;;;;22.33;12.55;;;15.30;70.50;;;;;;5061899;28;20044;-39
2021/04/01 10:51:08;;;;;;;20.73;10.77;;;15.40;70.50;;;;;;5062476;28;20140;-38
2021/04/01 10:53:40;;;;;;;14.80;9.23;;;15.40;70.30;;;;;;5065186;28;20131;-39
2021/04/01 10:56:08;;;;;;;20.48;10.07;;;15.40;70.30;;;;;;5054435;28;20149;-39
2021/04/01 10:58:35;;;;;;;18.55;9.15;;;15.40;70.30;;;;;;5063102;28;20079;-39
2021/04/01 11:01:04;;;;;;;17.45;8.73;;;15.40;70.60;;;;;;5064083;28;20063;-39
2021/04/01 11:03:36;;;;;;;18.13;8.77;;;15.50;70.70;;;;;;5064968;28;20017;-38
2021/04/01 11:06:04;;;;;;;15.43;7.78;;;15.50;70.30;;;;;;5064042;28;20526;-36
2021/04/01 11:08:39;;;;;;;15.70;7.30;;;15.50;70.00;;;;;;5064730;28;20032;-39
2021/04/01 11:11:06;;;;;;;13.43;6.80;;;15.60;70.30;;;;;;5061376;28;20091;-39
2021/04/01 11:13:37;;;;;;;11.60;6.53;;;15.60;69.60;;;;;;5064563;28;20418;-40
2021/04/01 11:16:05;;;;;;;13.25;6.38;;;15.70;70.00;;;;;;5064340;28;20447;-37
2021/04/01 11:18:35;;;;;;;12.45;6.22;;;15.70;69.60;;;;;;5065074;28;20119;-39
2021/04/01 11:21:05;;;;;;;11.63;6.03;;;15.70;69.60;;;;;;5064009;28;20031;-39
2021/04/01 11:23:31;;;;;;;12.57;6.03;;;15.70;69.50;;;;;;5064621;28;20069;-40
2021/04/01 11:25:59;;;;;;;10.50;5.45;;;15.80;69.30;;;;;;5063461;28;20052;-40
2021/04/01 11:28:49;;;;;;;10.35;5.35;;;16.00;69.40;;;;;;5064523;28;20099;-40
2021/04/01 11:31:25;;;;;;;9.32;4.72;;;16.10;69.20;;;;;;5064684;28;20020;-38
2021/04/01 11:33:52;;;;;;;9.18;4.35;;;16.10;68.90;;;;;;5064591;28;20016;-38
2021/04/01 11:36:21;;;;;;;13.85;4.50;;;16.10;68.80;;;;;;5064469;28;20032;-37
2021/04/01 11:38:50;;;;;;;10.52;4.35;;;16.20;68.30;;;;;;5049481;28;20141;-39
2021/04/01 11:41:18;;;;;;;9.80;3.38;;;16.20;68.10;;;;;;5064503;28;20104;-39
2021/04/01 11:43:48;;;;;;;9.38;4.60;;;16.20;68.40;;;;;;5064347;28;20066;-40
2021/04/01 11:46:24;;;;;;;9.75;3.65;;;16.20;68.40;;;;;;5064297;28;20568;-38
2021/04/01 11:48:51;;;;;;;5.45;3.03;;;16.20;68.40;;;;;;5063963;28;20124;-38
2021/04/01 11:51:42;;;;;;;7.93;2.83;;;16.20;68.40;;;;;;5064525;28;20074;-39
2021/04/01 11:54:09;;;;;;;7.10;2.50;;;16.30;68.60;;;;;;5061468;28;20066;-38
2021/04/01 11:56:41;;;;;;;9.85;2.80;;;16.30;68.40;;;;;;5064095;28;20128;-39
2021/04/01 11:59:11;;;;;;;12.43;2.80;;;16.20;68.70;;;;;;5064257;28;20075;-39
2021/04/01 12:02:09;;;;;;;10.93;2.70;;;16.20;68.80;;;;;;5062325;28;20028;-41
2021/04/01 12:04:37;;;;;;;5.75;2.70;;;16.20;68.80;;;;;;5064207;28;20043;-38
2021/04/01 12:07:05;;;;;;;8.18;2.50;;;16.20;68.90;;;;;;5064000;28;20648;-40
2021/04/01 12:09:34;;;;;;;9.63;2.63;;;16.20;68.90;;;;;;5064301;28;20063;-39
2021/04/01 12:11:59;;;;;;;7.05;2.38;;;16.30;69.00;;;;;;5063797;28;20581;-39
2021/04/01 12:14:34;;;;;;;9.82;2.75;;;16.30;68.70;;;;;;5064365;28;20028;-41
2021/04/01 12:17:01;;;;;;;9.75;2.50;;;16.20;68.80;;;;;;5063750;28;20065;-38
2021/04/01 12:19:29;;;;;;;12.60;3.00;;;16.20;68.70;;;;;;5064196;28;20024;-39
2021/04/01 12:21:55;;;;;;;10.75;2.72;;;16.10;69.10;;;;;;5063312;28;20024;-38
2021/04/01 12:24:21;;;;;;;9.23;2.80;;;16.10;69.40;;;;;;5064255;28;20040;-38
2021/04/01 12:26:48;;;;;;;11.07;2.95;;;16.10;69.40;;;;;;5063366;28;20070;-39
2021/04/01 12:29:14;;;;;;;15.18;3.20;;;16.10;69.30;;;;;;5060666;28;20025;-38
2021/04/01 12:31:44;;;;;;;9.77;2.30;;;16.10;69.30;;;;;;5063390;28;20032;-40
2021/04/01 12:34:11;;;;;;;7.00;2.30;;;16.10;69.50;;;;;;5063796;28;20059;-43
2021/04/01 12:36:50;;;;;;;8.75;2.47;;;16.10;69.70;;;;;;5062544;28;20051;-40
2021/04/01 12:39:27;;;;;;;10.40;2.60;;;16.10;69.10;;;;;;5063786;28;20052;-41
2021/04/01 12:41:55;;;;;;;7.72;2.33;;;16.00;69.20;;;;;;5062639;28;20625;-39
2021/04/01 12:44:31;;;;;;;7.82;2.20;;;16.00;69.30;;;;;;5063240;28;20032;-43
2021/04/01 12:46:57;;;;;;;10.85;3.53;;;16.00;69.40;;;;;;5061941;28;20115;-38
2021/04/01 12:49:32;;;;;;;7.10;2.33;;;15.90;69.60;;;;;;5063353;28;20147;-41
2021/04/01 12:52:01;;;;;;;9.95;2.38;;;15.90;69.80;;;;;;5062505;28;20338;-39
2021/04/01 12:54:29;;;;;;;7.75;2.38;;;15.90;69.60;;;;;;5063669;28;20104;-36
2021/04/01 12:57:03;;;;;;;8.95;2.33;;;16.00;69.50;;;;;;5060378;28;20016;-38
2021/04/01 12:59:51;;;;;;;6.60;2.53;;;15.90;69.60;;;;;;5062987;28;20123;-38
2021/04/01 13:02:19;;;;;;;6.70;2.30;;;15.90;69.90;;;;;;5045021;28;20119;-38
2021/04/01 13:04:53;;;;;;;9.45;2.10;;;15.90;69.90;;;;;;5062194;28;20063;-41
2021/04/01 13:12:34;;;;;;;9.73;2.97;;;15.90;69.90;;;;;;5068679;28;20117;-36
2021/04/01 13:15:00;;;;;;;7.57;2.35;;;15.90;70.20;;;;;;5067473;28;20541;-42
2021/04/01 13:17:25;;;;;;;6.63;2.25;;;15.90;69.90;;;;;;5063960;28;20021;-39
2021/04/01 13:19:51;;;;;;;5.78;1.80;;;15.90;69.80;;;;;;5066821;28;20537;-39
2021/04/01 13:22:26;;;;;;;4.90;1.80;;;15.90;69.60;;;;;;5067752;28;20111;-39
2021/04/01 13:27:19;;;;;;;8.05;2.08;;;15.90;69.30;;;;;;5067683;28;20032;-39
2021/04/01 13:29:54;;;;;;;6.18;1.67;;;16.00;69.00;;;;;;5067053;28;20042;-38
2021/04/01 13:32:35;;;;;;;6.65;1.90;;;15.90;68.70;;;;;;5067069;28;20116;-42
2021/04/01 13:35:07;;;;;;;5.50;1.73;;;15.90;68.90;;;;;;5066702;28;20036;-39
2021/04/01 13:37:41;;;;;;;8.02;1.85;;;16.00;68.10;;;;;;5067189;28;20028;-39
2021/04/01 13:40:13;;;;;;;4.18;1.50;;;16.00;67.50;;;;;;5064704;28;20490;-37
2021/04/01 13:42:51;;;;;;;8.57;1.92;;;16.00;67.00;;;;;;5066991;28;20139;-39
2021/04/01 13:45:21;;;;;;;6.22;1.98;;;16.00;66.90;;;;;;5067414;28;20029;-38
2021/04/01 13:47:54;;;;;;;4.43;1.65;;;16.00;66.70;;;;;;5066135;28;20025;-42
2021/04/01 13:50:22;;;;;;;6.40;1.83;;;16.00;66.40;;;;;;5066725;28;20060;-39
2021/04/01 14:00:31;;;;;;;7.72;1.70;;;15.90;65.40;;;;;;5067291;28;20041;-38
2021/04/01 14:09:08;;;;;;;6.05;1.70;;;16.00;64.00;;;;;;5066123;28;20077;-39
2021/04/01 14:11:41;;;;;;;;;;;16.00;62.80;;;;;;5067152;28;20370;-38
2021/04/01 14:14:08;;;;;;;5.65;1.90;;;15.90;63.50;;;;;;5064894;28;19908;-40
2021/04/01 14:16:38;;;;;;;8.45;1.92;;;15.90;63.20;;;;;;5066259;28;20047;-39
2021/04/01 14:19:05;;;;;;;6.13;1.92;;;15.90;62.90;;;;;;5066008;28;20044;-39
2021/04/01 14:21:31;;;;;;;7.85;1.80;;;15.90;61.90;;;;;;5065356;28;20027;-35
2021/04/01 14:23:57;;;;;;;5.93;1.67;;;15.90;61.90;;;;;;5065413;28;20495;-38
2021/04/01 14:26:30;;;;;;;6.05;1.50;;;15.90;61.20;;;;;;5066097;28;20031;-38
2021/04/01 14:28:55;;;;;;;4.95;1.50;;;16.00;60.40;;;;;;5065970;28;20039;-40
2021/04/01 14:31:21;;;;;;;7.45;1.73;;;16.00;58.80;;;;;;5066049;28;20107;-38
2021/04/01 14:33:48;;;;;;;7.60;1.52;;;16.00;57.80;;;;;;5065433;28;20029;-38
2021/04/01 14:36:15;;;;;;;6.47;1.50;;;15.90;57.00;;;;;;5065935;28;20134;-39